sensor_id;sensor_type;location;lat;lon;timestamp;pressure;altitude;pressure_sealevel;temperature;humidity
69127;BME280;56688;50.234;19.292;2024-01-30T00:00:37;100371.30;;;-3.40;76.66
69127;BME280;56688;50.234;19.292;2024-01-30T00:03:06;100370.39;;;-3.39;76.63
69127;BME280;56688;50.234;19.292;2024-01-30T00:05:33;100368.57;;;-3.37;76.94
69127;BME280;56688;50.234;19.292;2024-01-30T00:08:00;100369.75;;;-3.35;76.74
69127;BME280;56688;50.234;19.292;2024-01-30T00:10:27;100366.52;;;-3.38;76.25
69127;BME280;56688;50.234;19.292;2024-01-30T00:12:54;100364.47;;;-3.40;76.16
69127;BME280;56688;50.234;19.292;2024-01-30T00:15:21;100363.04;;;-3.43;75.85
69127;BME280;56688;50.234;19.292;2024-01-30T00:17:48;100365.32;;;-3.48;75.86
69127;BME280;56688;50.234;19.292;2024-01-30T00:20:16;100365.54;;;-3.54;75.64
69127;BME280;56688;50.234;19.292;2024-01-30T00:22:43;100357.88;;;-3.59;75.67
69127;BME280;56688;50.234;19.292;2024-01-30T00:25:09;100358.69;;;-3.62;75.82
69127;BME280;56688;50.234;19.292;2024-01-30T00:27:37;100362.41;;;-3.64;75.71
69127;BME280;56688;50.234;19.292;2024-01-30T00:30:04;100363.92;;;-3.63;75.84
69127;BME280;56688;50.234;19.292;2024-01-30T00:32:31;100364.35;;;-3.60;75.83
69127;BME280;56688;50.234;19.292;2024-01-30T00:34:58;100367.05;;;-3.58;75.74
69127;BME280;56688;50.234;19.292;2024-01-30T00:37:26;100363.33;;;-3.56;75.71
69127;BME280;56688;50.234;19.292;2024-01-30T00:39:53;100360.52;;;-3.55;75.85
69127;BME280;56688;50.234;19.292;2024-01-30T00:42:20;100364.23;;;-3.57;75.47
69127;BME280;56688;50.234;19.292;2024-01-30T00:44:47;100365.81;;;-3.62;75.27
69127;BME280;56688;50.234;19.292;2024-01-30T00:47:14;100363.73;;;-3.68;75.19
69127;BME280;56688;50.234;19.292;2024-01-30T00:49:41;100358.56;;;-3.74;75.25
69127;BME280;56688;50.234;19.292;2024-01-30T00:52:08;100359.49;;;-3.80;75.33
69127;BME280;56688;50.234;19.292;2024-01-30T00:54:35;100354.75;;;-3.85;75.33
69127;BME280;56688;50.234;19.292;2024-01-30T00:57:03;100357.11;;;-3.87;75.75
69127;BME280;56688;50.234;19.292;2024-01-30T00:59:30;100353.98;;;-3.87;76.01
69127;BME280;56688;50.234;19.292;2024-01-30T01:01:56;100355.21;;;-3.88;75.90
69127;BME280;56688;50.234;19.292;2024-01-30T01:04:23;100350.84;;;-3.87;75.96
69127;BME280;56688;50.234;19.292;2024-01-30T01:06:50;100346.58;;;-3.85;76.02
69127;BME280;56688;50.234;19.292;2024-01-30T01:09:18;100343.89;;;-3.82;76.12
69127;BME280;56688;50.234;19.292;2024-01-30T01:11:44;100344.36;;;-3.81;75.64
69127;BME280;56688;50.234;19.292;2024-01-30T01:14:12;100344.58;;;-3.82;75.59
69127;BME280;56688;50.234;19.292;2024-01-30T01:16:39;100339.27;;;-3.85;75.57
69127;BME280;56688;50.234;19.292;2024-01-30T01:19:06;100338.92;;;-3.90;75.28
69127;BME280;56688;50.234;19.292;2024-01-30T01:21:33;100340.70;;;-3.96;75.07
69127;BME280;56688;50.234;19.292;2024-01-30T01:24:00;100335.55;;;-4.04;74.88
69127;BME280;56688;50.234;19.292;2024-01-30T01:26:27;100337.14;;;-4.10;75.03
69127;BME280;56688;50.234;19.292;2024-01-30T01:28:54;100338.40;;;-4.16;74.83
69127;BME280;56688;50.234;19.292;2024-01-30T01:31:20;100340.08;;;-4.19;75.27
69127;BME280;56688;50.234;19.292;2024-01-30T01:33:51;100333.39;;;-4.17;75.32
69127;BME280;56688;50.234;19.292;2024-01-30T01:36:18;100332.92;;;-4.14;75.75
69127;BME280;56688;50.234;19.292;2024-01-30T01:38:45;100335.13;;;-4.11;75.57
69127;BME280;56688;50.234;19.292;2024-01-30T01:41:12;100328.61;;;-4.14;75.08
69127;BME280;56688;50.234;19.292;2024-01-30T01:43:39;100327.91;;;-4.20;74.82
69127;BME280;56688;50.234;19.292;2024-01-30T01:46:07;100329.58;;;-4.23;75.39
69127;BME280;56688;50.234;19.292;2024-01-30T01:48:35;100322.52;;;-4.25;75.82
69127;BME280;56688;50.234;19.292;2024-01-30T01:51:02;100325.70;;;-4.26;75.87
69127;BME280;56688;50.234;19.292;2024-01-30T01:53:30;100320.52;;;-4.33;75.48
69127;BME280;56688;50.234;19.292;2024-01-30T01:55:56;100316.84;;;-4.38;75.70
69127;BME280;56688;50.234;19.292;2024-01-30T01:58:26;100319.98;;;-4.38;76.10
69127;BME280;56688;50.234;19.292;2024-01-30T02:00:56;100319.58;;;-4.36;77.07
69127;BME280;56688;50.234;19.292;2024-01-30T02:03:23;100320.63;;;-4.31;77.68
69127;BME280;56688;50.234;19.292;2024-01-30T02:05:51;100321.95;;;-4.24;78.27
69127;BME280;56688;50.234;19.292;2024-01-30T02:08:18;100322.04;;;-4.16;78.42
69127;BME280;56688;50.234;19.292;2024-01-30T02:10:45;100317.04;;;-4.12;78.37
69127;BME280;56688;50.234;19.292;2024-01-30T02:13:12;100309.40;;;-4.07;78.19
69127;BME280;56688;50.234;19.292;2024-01-30T02:15:39;100311.41;;;-4.05;77.74
69127;BME280;56688;50.234;19.292;2024-01-30T02:18:06;100310.98;;;-4.03;77.77
69127;BME280;56688;50.234;19.292;2024-01-30T02:20:35;100311.28;;;-4.02;77.62
69127;BME280;56688;50.234;19.292;2024-01-30T02:23:02;100308.89;;;-4.03;77.42
69127;BME280;56688;50.234;19.292;2024-01-30T02:25:39;100312.14;;;-4.06;77.25
69127;BME280;56688;50.234;19.292;2024-01-30T02:28:12;100311.42;;;-4.11;76.89
69127;BME280;56688;50.234;19.292;2024-01-30T02:30:40;100312.39;;;-4.13;76.75
69127;BME280;56688;50.234;19.292;2024-01-30T02:33:07;100316.60;;;-4.15;76.46
69127;BME280;56688;50.234;19.292;2024-01-30T02:35:34;100316.71;;;-4.18;76.08
69127;BME280;56688;50.234;19.292;2024-01-30T02:38:01;100318.39;;;-4.21;76.12
69127;BME280;56688;50.234;19.292;2024-01-30T02:40:28;100315.44;;;-4.22;76.04
69127;BME280;56688;50.234;19.292;2024-01-30T02:42:56;100317.39;;;-4.23;75.97
69127;BME280;56688;50.234;19.292;2024-01-30T02:45:23;100313.14;;;-4.26;75.60
69127;BME280;56688;50.234;19.292;2024-01-30T02:47:50;100312.13;;;-4.31;75.06
69127;BME280;56688;50.234;19.292;2024-01-30T02:50:18;100309.80;;;-4.40;74.65
69127;BME280;56688;50.234;19.292;2024-01-30T02:52:45;100309.72;;;-4.49;74.87
69127;BME280;56688;50.234;19.292;2024-01-30T02:55:12;100307.61;;;-4.54;75.20
69127;BME280;56688;50.234;19.292;2024-01-30T02:57:40;100310.44;;;-4.60;75.21
69127;BME280;56688;50.234;19.292;2024-01-30T03:00:07;100303.13;;;-4.65;75.34
69127;BME280;56688;50.234;19.292;2024-01-30T03:02:36;100303.86;;;-4.66;75.84
69127;BME280;56688;50.234;19.292;2024-01-30T03:05:05;100302.76;;;-4.65;76.21
69127;BME280;56688;50.234;19.292;2024-01-30T03:07:33;100299.20;;;-4.62;76.29
69127;BME280;56688;50.234;19.292;2024-01-30T03:10:00;100302.47;;;-4.61;76.32
69127;BME280;56688;50.234;19.292;2024-01-30T03:12:27;100304.92;;;-4.57;76.50
69127;BME280;56688;50.234;19.292;2024-01-30T03:14:54;100300.98;;;-4.53;76.54
69127;BME280;56688;50.234;19.292;2024-01-30T03:17:21;100306.30;;;-4.50;76.03
69127;BME280;56688;50.234;19.292;2024-01-30T03:19:48;100304.21;;;-4.51;75.82
69127;BME280;56688;50.234;19.292;2024-01-30T03:22:16;100304.63;;;-4.52;75.81
69127;BME280;56688;50.234;19.292;2024-01-30T03:24:43;100300.52;;;-4.55;75.56
69127;BME280;56688;50.234;19.292;2024-01-30T03:27:10;100299.98;;;-4.59;75.17
69127;BME280;56688;50.234;19.292;2024-01-30T03:29:37;100294.12;;;-4.66;74.91
69127;BME280;56688;50.234;19.292;2024-01-30T03:32:05;100296.51;;;-4.70;74.73
69127;BME280;56688;50.234;19.292;2024-01-30T03:34:32;100297.66;;;-4.74;74.80
69127;BME280;56688;50.234;19.292;2024-01-30T03:36:59;100302.18;;;-4.74;74.78
69127;BME280;56688;50.234;19.292;2024-01-30T03:39:26;100304.12;;;-4.74;74.97
69127;BME280;56688;50.234;19.292;2024-01-30T03:41:53;100305.97;;;-4.73;75.35
69127;BME280;56688;50.234;19.292;2024-01-30T03:44:20;100305.05;;;-4.71;75.23
69127;BME280;56688;50.234;19.292;2024-01-30T03:46:47;100302.02;;;-4.74;74.82
69127;BME280;56688;50.234;19.292;2024-01-30T03:49:14;100303.10;;;-4.81;74.73
69127;BME280;56688;50.234;19.292;2024-01-30T03:51:42;100301.50;;;-4.86;74.83
69127;BME280;56688;50.234;19.292;2024-01-30T03:54:09;100300.20;;;-4.88;75.38
69127;BME280;56688;50.234;19.292;2024-01-30T03:56:37;100301.11;;;-4.89;75.54
69127;BME280;56688;50.234;19.292;2024-01-30T03:59:04;100304.67;;;-4.92;75.96
69127;BME280;56688;50.234;19.292;2024-01-30T04:01:31;100302.02;;;-4.97;75.60
69127;BME280;56688;50.234;19.292;2024-01-30T04:03:58;100299.47;;;-4.99;75.65
69127;BME280;56688;50.234;19.292;2024-01-30T04:06:26;100297.75;;;-5.00;75.60
69127;BME280;56688;50.234;19.292;2024-01-30T04:08:54;100300.68;;;-4.98;75.63
69127;BME280;56688;50.234;19.292;2024-01-30T04:11:20;100299.38;;;-4.95;75.88
69127;BME280;56688;50.234;19.292;2024-01-30T04:13:50;100295.26;;;-4.92;75.99
69127;BME280;56688;50.234;19.292;2024-01-30T04:16:20;100299.38;;;-4.90;76.04
69127;BME280;56688;50.234;19.292;2024-01-30T04:18:49;100295.52;;;-4.88;75.71
69127;BME280;56688;50.234;19.292;2024-01-30T04:21:16;100294.85;;;-4.90;75.65
69127;BME280;56688;50.234;19.292;2024-01-30T04:23:43;100294.16;;;-4.90;75.58
69127;BME280;56688;50.234;19.292;2024-01-30T04:26:11;100298.55;;;-4.92;75.71
69127;BME280;56688;50.234;19.292;2024-01-30T04:28:37;100296.19;;;-4.93;75.89
69127;BME280;56688;50.234;19.292;2024-01-30T04:31:04;100295.39;;;-4.96;76.11
69127;BME280;56688;50.234;19.292;2024-01-30T04:33:31;100293.84;;;-4.96;75.89
69127;BME280;56688;50.234;19.292;2024-01-30T04:35:58;100294.02;;;-4.96;76.17
69127;BME280;56688;50.234;19.292;2024-01-30T04:38:25;100291.23;;;-4.91;76.27
69127;BME280;56688;50.234;19.292;2024-01-30T04:40:52;100290.11;;;-4.88;76.07
69127;BME280;56688;50.234;19.292;2024-01-30T04:43:19;100290.38;;;-4.86;75.81
69127;BME280;56688;50.234;19.292;2024-01-30T04:45:49;100291.38;;;-4.84;75.65
69127;BME280;56688;50.234;19.292;2024-01-30T04:48:16;100292.38;;;-4.83;75.44
69127;BME280;56688;50.234;19.292;2024-01-30T04:50:43;100296.71;;;-4.82;75.54
69127;BME280;56688;50.234;19.292;2024-01-30T04:53:10;100300.64;;;-4.86;75.27
69127;BME280;56688;50.234;19.292;2024-01-30T04:55:37;100303.02;;;-4.90;75.08
69127;BME280;56688;50.234;19.292;2024-01-30T04:58:04;100303.50;;;-4.94;74.90
69127;BME280;56688;50.234;19.292;2024-01-30T05:00:31;100298.16;;;-5.01;74.37
69127;BME280;56688;50.234;19.292;2024-01-30T05:02:58;100298.42;;;-5.10;74.52
69127;BME280;56688;50.234;19.292;2024-01-30T05:05:25;100296.83;;;-5.15;74.75
69127;BME280;56688;50.234;19.292;2024-01-30T05:07:52;100298.05;;;-5.16;75.10
69127;BME280;56688;50.234;19.292;2024-01-30T05:10:19;100297.23;;;-5.11;75.44
69127;BME280;56688;50.234;19.292;2024-01-30T05:12:46;100292.84;;;-5.10;75.99
69127;BME280;56688;50.234;19.292;2024-01-30T05:15:13;100293.41;;;-5.05;76.15
69127;BME280;56688;50.234;19.292;2024-01-30T05:17:40;100289.86;;;-5.02;75.73
69127;BME280;56688;50.234;19.292;2024-01-30T05:20:07;100297.46;;;-5.01;75.36
69127;BME280;56688;50.234;19.292;2024-01-30T05:22:36;100297.14;;;-5.02;74.97
69127;BME280;56688;50.234;19.292;2024-01-30T05:25:04;100293.59;;;-5.05;74.91
69127;BME280;56688;50.234;19.292;2024-01-30T05:27:31;100289.96;;;-5.12;74.46
69127;BME280;56688;50.234;19.292;2024-01-30T05:29:58;100290.33;;;-5.18;74.71
69127;BME280;56688;50.234;19.292;2024-01-30T05:32:25;100292.37;;;-5.23;74.98
69127;BME280;56688;50.234;19.292;2024-01-30T05:34:52;100292.14;;;-5.27;75.26
69127;BME280;56688;50.234;19.292;2024-01-30T05:37:19;100288.74;;;-5.29;75.61
69127;BME280;56688;50.234;19.292;2024-01-30T05:39:46;100290.36;;;-5.31;75.50
69127;BME280;56688;50.234;19.292;2024-01-30T05:42:13;100289.33;;;-5.32;75.20
69127;BME280;56688;50.234;19.292;2024-01-30T05:44:40;100286.67;;;-5.30;75.12
69127;BME280;56688;50.234;19.292;2024-01-30T05:47:06;100289.10;;;-5.29;75.40
69127;BME280;56688;50.234;19.292;2024-01-30T05:49:33;100288.98;;;-5.25;75.16
69127;BME280;56688;50.234;19.292;2024-01-30T05:52:03;100287.86;;;-5.22;75.68
69127;BME280;56688;50.234;19.292;2024-01-30T05:54:30;100294.77;;;-5.21;75.45
69127;BME280;56688;50.234;19.292;2024-01-30T05:56:58;100298.27;;;-5.22;74.98
69127;BME280;56688;50.234;19.292;2024-01-30T05:59:24;100301.16;;;-5.26;74.63
69127;BME280;56688;50.234;19.292;2024-01-30T06:01:51;100304.63;;;-5.32;74.22
69127;BME280;56688;50.234;19.292;2024-01-30T06:04:18;100304.49;;;-5.39;74.16
69127;BME280;56688;50.234;19.292;2024-01-30T06:06:45;100304.35;;;-5.47;74.48
69127;BME280;56688;50.234;19.292;2024-01-30T06:09:13;100302.25;;;-5.52;74.70
69127;BME280;56688;50.234;19.292;2024-01-30T06:11:39;100304.94;;;-5.55;74.81
69127;BME280;56688;50.234;19.292;2024-01-30T06:14:06;100311.05;;;-5.56;74.70
69127;BME280;56688;50.234;19.292;2024-01-30T06:16:33;100306.05;;;-5.57;74.95
69127;BME280;56688;50.234;19.292;2024-01-30T06:19:00;100306.96;;;-5.53;75.14
69127;BME280;56688;50.234;19.292;2024-01-30T06:21:27;100307.05;;;-5.49;74.44
69127;BME280;56688;50.234;19.292;2024-01-30T06:23:54;100305.11;;;-5.48;74.64
69127;BME280;56688;50.234;19.292;2024-01-30T06:26:21;100305.02;;;-5.46;74.93
69127;BME280;56688;50.234;19.292;2024-01-30T06:28:49;100301.10;;;-5.42;75.35
69127;BME280;56688;50.234;19.292;2024-01-30T06:31:16;100302.05;;;-5.39;75.24
69127;BME280;56688;50.234;19.292;2024-01-30T06:33:43;100298.98;;;-5.41;74.86
69127;BME280;56688;50.234;19.292;2024-01-30T06:36:10;100302.14;;;-5.42;74.71
69127;BME280;56688;50.234;19.292;2024-01-30T06:38:37;100301.29;;;-5.42;74.62
69127;BME280;56688;50.234;19.292;2024-01-30T06:41:04;100300.96;;;-5.43;75.12
69127;BME280;56688;50.234;19.292;2024-01-30T06:43:31;100298.00;;;-5.42;75.47
69127;BME280;56688;50.234;19.292;2024-01-30T06:45:58;100301.98;;;-5.43;75.62
69127;BME280;56688;50.234;19.292;2024-01-30T06:48:26;100301.83;;;-5.43;75.55
69127;BME280;56688;50.234;19.292;2024-01-30T06:50:53;100304.86;;;-5.40;76.05
69127;BME280;56688;50.234;19.292;2024-01-30T06:53:20;100304.35;;;-5.34;76.28
69127;BME280;56688;50.234;19.292;2024-01-30T06:55:47;100302.49;;;-5.24;76.77
69127;BME280;56688;50.234;19.292;2024-01-30T06:58:14;100302.27;;;-5.11;77.13
69127;BME280;56688;50.234;19.292;2024-01-30T07:00:41;100301.66;;;-4.96;77.40
69127;BME280;56688;50.234;19.292;2024-01-30T07:03:09;100305.70;;;-4.81;77.53
69127;BME280;56688;50.234;19.292;2024-01-30T07:05:35;100303.58;;;-4.69;77.35
69127;BME280;56688;50.234;19.292;2024-01-30T07:08:02;100305.16;;;-4.59;77.06
69127;BME280;56688;50.234;19.292;2024-01-30T07:10:29;100307.64;;;-4.49;77.24
69127;BME280;56688;50.234;19.292;2024-01-30T07:12:58;100308.99;;;-4.37;77.30
69127;BME280;56688;50.234;19.292;2024-01-30T07:15:27;100310.85;;;-4.25;77.60
69127;BME280;56688;50.234;19.292;2024-01-30T07:17:54;100312.04;;;-4.08;77.87
69127;BME280;56688;50.234;19.292;2024-01-30T07:20:21;100312.29;;;-3.80;78.51
69127;BME280;56688;50.234;19.292;2024-01-30T07:22:48;100313.04;;;-3.38;79.05
69127;BME280;56688;50.234;19.292;2024-01-30T07:25:15;100312.61;;;-2.85;79.39
69127;BME280;56688;50.234;19.292;2024-01-30T07:27:43;100306.33;;;-2.29;79.26
69127;BME280;56688;50.234;19.292;2024-01-30T07:30:11;100308.71;;;-1.74;78.30
69127;BME280;56688;50.234;19.292;2024-01-30T07:32:38;100304.84;;;-1.30;76.65
69127;BME280;56688;50.234;19.292;2024-01-30T07:35:05;100306.44;;;-0.96;75.45
69127;BME280;56688;50.234;19.292;2024-01-30T07:37:35;100310.65;;;-0.70;74.45
69127;BME280;56688;50.234;19.292;2024-01-30T07:40:03;100305.28;;;-0.50;73.72
69127;BME280;56688;50.234;19.292;2024-01-30T07:42:30;100304.02;;;-0.31;73.15
69127;BME280;56688;50.234;19.292;2024-01-30T07:44:58;100300.89;;;-0.10;73.07
69127;BME280;56688;50.234;19.292;2024-01-30T07:47:24;100295.80;;;0.11;72.36
69127;BME280;56688;50.234;19.292;2024-01-30T07:49:52;100290.55;;;0.38;72.71
69127;BME280;56688;50.234;19.292;2024-01-30T07:52:19;100284.10;;;0.76;72.98
69127;BME280;56688;50.234;19.292;2024-01-30T07:54:46;100279.82;;;1.16;72.28
69127;BME280;56688;50.234;19.292;2024-01-30T07:57:13;100277.86;;;1.51;71.11
69127;BME280;56688;50.234;19.292;2024-01-30T07:59:42;100282.73;;;1.76;69.42
69127;BME280;56688;50.234;19.292;2024-01-30T08:02:12;100285.86;;;1.95;67.70
69127;BME280;56688;50.234;19.292;2024-01-30T08:04:40;100288.02;;;2.12;67.28
69127;BME280;56688;50.234;19.292;2024-01-30T08:07:07;100289.16;;;2.28;66.87
69127;BME280;56688;50.234;19.292;2024-01-30T08:09:34;100288.98;;;2.45;66.90
69127;BME280;56688;50.234;19.292;2024-01-30T08:12:01;100293.20;;;2.62;66.53
69127;BME280;56688;50.234;19.292;2024-01-30T08:14:28;100296.85;;;2.81;66.27
69127;BME280;56688;50.234;19.292;2024-01-30T08:16:55;100296.00;;;2.97;66.17
69127;BME280;56688;50.234;19.292;2024-01-30T08:19:22;100298.55;;;3.12;66.18
69127;BME280;56688;50.234;19.292;2024-01-30T08:21:49;100297.48;;;3.29;65.99
69127;BME280;56688;50.234;19.292;2024-01-30T08:24:16;100297.09;;;3.49;65.85
69127;BME280;56688;50.234;19.292;2024-01-30T08:26:43;100299.42;;;3.70;66.48
69127;BME280;56688;50.234;19.292;2024-01-30T08:29:10;100289.26;;;3.95;66.33
69127;BME280;56688;50.234;19.292;2024-01-30T08:31:37;100291.98;;;4.20;65.83
69127;BME280;56688;50.234;19.292;2024-01-30T08:34:04;100291.38;;;4.45;65.91
69127;BME280;56688;50.234;19.292;2024-01-30T08:36:31;100292.25;;;4.67;66.16
69127;BME280;56688;50.234;19.292;2024-01-30T08:38:58;100292.59;;;4.85;64.57
69127;BME280;56688;50.234;19.292;2024-01-30T08:41:30;100291.44;;;5.19;65.03
69127;BME280;56688;50.234;19.292;2024-01-30T08:43:57;100292.33;;;5.67;64.13
69127;BME280;56688;50.234;19.292;2024-01-30T08:46:24;100290.38;;;6.17;62.78
69127;BME280;56688;50.234;19.292;2024-01-30T08:48:52;100290.58;;;6.69;61.26
69127;BME280;56688;50.234;19.292;2024-01-30T08:51:20;100298.59;;;7.29;59.45
69127;BME280;56688;50.234;19.292;2024-01-30T08:53:47;100296.56;;;7.76;56.15
69127;BME280;56688;50.234;19.292;2024-01-30T08:56:14;100285.85;;;8.06;53.75
69127;BME280;56688;50.234;19.292;2024-01-30T08:58:43;100289.35;;;8.32;52.04
69127;BME280;56688;50.234;19.292;2024-01-30T09:01:10;100288.84;;;8.40;50.78
69127;BME280;56688;50.234;19.292;2024-01-30T09:03:37;100288.36;;;8.54;51.44
69127;BME280;56688;50.234;19.292;2024-01-30T09:06:10;100288.89;;;8.79;51.37
69127;BME280;56688;50.234;19.292;2024-01-30T09:08:38;100284.99;;;9.07;50.89
69127;BME280;56688;50.234;19.292;2024-01-30T09:11:09;100283.28;;;9.34;49.58
69127;BME280;56688;50.234;19.292;2024-01-30T09:13:37;100279.14;;;9.61;49.00
69127;BME280;56688;50.234;19.292;2024-01-30T09:16:05;100279.48;;;9.88;48.13
69127;BME280;56688;50.234;19.292;2024-01-30T09:18:32;100275.77;;;10.05;47.05
69127;BME280;56688;50.234;19.292;2024-01-30T09:20:59;100271.77;;;10.04;46.53
69127;BME280;56688;50.234;19.292;2024-01-30T09:23:27;100268.56;;;10.06;46.31
69127;BME280;56688;50.234;19.292;2024-01-30T09:25:55;100268.48;;;10.15;46.06
69127;BME280;56688;50.234;19.292;2024-01-30T09:28:22;100275.73;;;10.21;45.38
69127;BME280;56688;50.234;19.292;2024-01-30T09:30:52;100274.89;;;10.05;45.07
69127;BME280;56688;50.234;19.292;2024-01-30T09:33:19;100276.27;;;10.00;45.75
69127;BME280;56688;50.234;19.292;2024-01-30T09:35:47;100276.97;;;9.98;45.28
69127;BME280;56688;50.234;19.292;2024-01-30T09:38:13;100273.04;;;9.92;45.30
69127;BME280;56688;50.234;19.292;2024-01-30T09:40:40;100278.33;;;9.87;45.07
69127;BME280;56688;50.234;19.292;2024-01-30T09:43:14;100279.69;;;9.80;45.61
69127;BME280;56688;50.234;19.292;2024-01-30T09:45:46;100284.06;;;9.83;45.83
69127;BME280;56688;50.234;19.292;2024-01-30T09:48:15;100273.70;;;9.97;45.80
69127;BME280;56688;50.234;19.292;2024-01-30T09:50:42;100271.16;;;10.13;45.25
69127;BME280;56688;50.234;19.292;2024-01-30T09:53:11;100270.55;;;10.23;44.89
69127;BME280;56688;50.234;19.292;2024-01-30T09:55:40;100266.06;;;10.29;44.78
69127;BME280;56688;50.234;19.292;2024-01-30T09:58:11;100263.81;;;10.31;44.67
69127;BME280;56688;50.234;19.292;2024-01-30T10:00:39;100258.28;;;10.27;43.98
69127;BME280;56688;50.234;19.292;2024-01-30T10:03:06;100254.83;;;10.20;44.41
69127;BME280;56688;50.234;19.292;2024-01-30T10:05:32;100256.33;;;10.19;44.24
69127;BME280;56688;50.234;19.292;2024-01-30T10:08:05;100254.83;;;10.22;45.30
69127;BME280;56688;50.234;19.292;2024-01-30T10:10:34;100253.52;;;10.32;44.45
69127;BME280;56688;50.234;19.292;2024-01-30T10:13:02;100246.30;;;10.37;44.31
69127;BME280;56688;50.234;19.292;2024-01-30T10:15:31;100243.05;;;10.45;44.47
69127;BME280;56688;50.234;19.292;2024-01-30T10:17:58;100243.28;;;10.39;43.48
69127;BME280;56688;50.234;19.292;2024-01-30T10:20:25;100240.52;;;10.20;44.35
69127;BME280;56688;50.234;19.292;2024-01-30T10:22:52;100237.89;;;10.14;44.61
69127;BME280;56688;50.234;19.292;2024-01-30T10:25:21;100234.70;;;10.14;44.93
69127;BME280;56688;50.234;19.292;2024-01-30T10:27:53;100228.08;;;10.15;44.73
69127;BME280;56688;50.234;19.292;2024-01-30T10:30:22;100224.74;;;10.04;44.56
69127;BME280;56688;50.234;19.292;2024-01-30T10:32:49;100218.44;;;10.05;45.33
69127;BME280;56688;50.234;19.292;2024-01-30T10:35:16;100215.16;;;10.16;44.84
69127;BME280;56688;50.234;19.292;2024-01-30T10:37:47;100213.92;;;10.12;44.58
69127;BME280;56688;50.234;19.292;2024-01-30T10:40:15;100210.20;;;10.06;44.19
69127;BME280;56688;50.234;19.292;2024-01-30T10:42:43;100208.98;;;9.98;44.43
69127;BME280;56688;50.234;19.292;2024-01-30T10:45:12;100208.30;;;9.96;45.04
69127;BME280;56688;50.234;19.292;2024-01-30T10:47:43;100207.31;;;10.00;45.11
69127;BME280;56688;50.234;19.292;2024-01-30T10:50:10;100205.31;;;10.01;44.79
69127;BME280;56688;50.234;19.292;2024-01-30T10:52:39;100198.48;;;10.01;44.53
69127;BME280;56688;50.234;19.292;2024-01-30T10:55:09;100196.02;;;9.99;45.09
69127;BME280;56688;50.234;19.292;2024-01-30T10:57:37;100191.15;;;10.04;44.39
69127;BME280;56688;50.234;19.292;2024-01-30T11:00:08;100185.69;;;9.98;44.36
69127;BME280;56688;50.234;19.292;2024-01-30T11:02:40;100183.85;;;9.98;44.56
69127;BME280;56688;50.234;19.292;2024-01-30T11:05:08;100183.23;;;10.01;44.42
69127;BME280;56688;50.234;19.292;2024-01-30T11:07:35;100180.92;;;10.09;44.25
69127;BME280;56688;50.234;19.292;2024-01-30T11:10:03;100179.60;;;10.13;44.24
69127;BME280;56688;50.234;19.292;2024-01-30T11:12:32;100178.79;;;10.18;44.14
69127;BME280;56688;50.234;19.292;2024-01-30T11:15:03;100172.45;;;10.17;43.34
69127;BME280;56688;50.234;19.292;2024-01-30T11:17:42;100175.04;;;10.16;44.22
69127;BME280;56688;50.234;19.292;2024-01-30T11:20:11;100176.27;;;10.32;43.86
69127;BME280;56688;50.234;19.292;2024-01-30T11:22:41;100170.35;;;10.47;43.42
69127;BME280;56688;50.234;19.292;2024-01-30T11:25:11;100170.44;;;10.65;43.23
69127;BME280;56688;50.234;19.292;2024-01-30T11:27:39;100167.59;;;10.72;42.40
69127;BME280;56688;50.234;19.292;2024-01-30T11:30:08;100158.69;;;10.73;42.77
69127;BME280;56688;50.234;19.292;2024-01-30T11:32:35;100157.66;;;10.91;42.70
69127;BME280;56688;50.234;19.292;2024-01-30T11:35:04;100157.09;;;11.15;42.58
69127;BME280;56688;50.234;19.292;2024-01-30T11:37:36;100148.40;;;11.36;42.02
69127;BME280;56688;50.234;19.292;2024-01-30T11:40:06;100146.17;;;11.49;41.35
69127;BME280;56688;50.234;19.292;2024-01-30T11:42:34;100143.95;;;11.66;41.37
69127;BME280;56688;50.234;19.292;2024-01-30T11:45:03;100141.35;;;11.95;41.10
69127;BME280;56688;50.234;19.292;2024-01-30T11:47:31;100139.36;;;12.20;40.79
69127;BME280;56688;50.234;19.292;2024-01-30T11:49:58;100138.85;;;12.44;40.14
69127;BME280;56688;50.234;19.292;2024-01-30T11:52:28;100132.46;;;12.53;39.01
69127;BME280;56688;50.234;19.292;2024-01-30T11:54:55;100130.58;;;12.52;38.96
69127;BME280;56688;50.234;19.292;2024-01-30T11:57:22;100127.89;;;12.49;39.11
69127;BME280;56688;50.234;19.292;2024-01-30T11:59:49;100127.41;;;12.48;39.78
69127;BME280;56688;50.234;19.292;2024-01-30T12:02:16;100118.81;;;12.71;39.58
69127;BME280;56688;50.234;19.292;2024-01-30T12:04:44;100115.08;;;12.89;38.99
69127;BME280;56688;50.234;19.292;2024-01-30T12:07:11;100107.88;;;13.06;38.73
69127;BME280;56688;50.234;19.292;2024-01-30T12:09:39;100108.47;;;13.27;38.62
69127;BME280;56688;50.234;19.292;2024-01-30T12:12:07;100106.56;;;13.35;37.74
69127;BME280;56688;50.234;19.292;2024-01-30T12:14:39;100103.54;;;13.28;38.12
69127;BME280;56688;50.234;19.292;2024-01-30T12:17:06;100099.52;;;13.27;38.17
69127;BME280;56688;50.234;19.292;2024-01-30T12:19:35;100097.00;;;13.23;37.97
69127;BME280;56688;50.234;19.292;2024-01-30T12:22:02;100093.92;;;13.33;38.13
69127;BME280;56688;50.234;19.292;2024-01-30T12:24:29;100092.60;;;13.66;37.49
69127;BME280;56688;50.234;19.292;2024-01-30T12:26:59;100091.85;;;13.94;36.58
69127;BME280;56688;50.234;19.292;2024-01-30T12:29:27;100086.42;;;14.16;36.30
69127;BME280;56688;50.234;19.292;2024-01-30T12:32:00;100082.48;;;14.53;36.33
69127;BME280;56688;50.234;19.292;2024-01-30T12:34:27;100075.64;;;14.87;35.45
69127;BME280;56688;50.234;19.292;2024-01-30T12:36:56;100072.04;;;15.15;35.04
69127;BME280;56688;50.234;19.292;2024-01-30T12:39:25;100067.78;;;15.49;34.37
69127;BME280;56688;50.234;19.292;2024-01-30T12:41:52;100064.82;;;15.72;33.49